sensor_id;sensor_type;location;lat;lon;timestamp;pressure;altitude;pressure_sealevel;temperature;humidity
61488;BME280;47351;53.326;-6.298;2023-04-24T00:02:06;100563.38;;;9.53;73.68
61488;BME280;47351;53.326;-6.298;2023-04-24T00:04:58;100566.23;;;9.50;73.84
61488;BME280;47351;53.326;-6.298;2023-04-24T00:07:51;100564.27;;;9.46;73.89
61488;BME280;47351;53.326;-6.298;2023-04-24T00:10:42;100560.13;;;9.45;74.24
61488;BME280;47351;53.326;-6.298;2023-04-24T00:13:34;100560.52;;;9.43;74.49
61488;BME280;47351;53.326;-6.298;2023-04-24T00:16:28;100559.64;;;9.43;74.73
61488;BME280;47351;53.326;-6.298;2023-04-24T00:19:23;100562.50;;;9.44;74.68
61488;BME280;47351;53.326;-6.298;2023-04-24T00:22:13;100560.46;;;9.45;74.81
61488;BME280;47351;53.326;-6.298;2023-04-24T00:25:09;100559.29;;;9.46;74.90
61488;BME280;47351;53.326;-6.298;2023-04-24T00:28:00;100558.27;;;9.47;74.96
61488;BME280;47351;53.326;-6.298;2023-04-24T00:30:59;100556.64;;;9.49;75.30
61488;BME280;47351;53.326;-6.298;2023-04-24T00:34:08;100559.44;;;9.52;75.25
61488;BME280;47351;53.326;-6.298;2023-04-24T00:37:01;100562.00;;;9.51;74.96
61488;BME280;47351;53.326;-6.298;2023-04-24T00:39:51;100559.41;;;9.48;75.07
61488;BME280;47351;53.326;-6.298;2023-04-24T00:42:45;100557.09;;;9.43;74.75
61488;BME280;47351;53.326;-6.298;2023-04-24T00:45:48;100553.95;;;9.36;74.65
61488;BME280;47351;53.326;-6.298;2023-04-24T00:48:39;100554.66;;;9.28;74.74
61488;BME280;47351;53.326;-6.298;2023-04-24T00:51:38;100553.77;;;9.23;74.88
61488;BME280;47351;53.326;-6.298;2023-04-24T00:54:38;100555.00;;;9.18;75.16
61488;BME280;47351;53.326;-6.298;2023-04-24T00:57:36;100555.39;;;9.12;75.16
61488;BME280;47351;53.326;-6.298;2023-04-24T01:00:27;100550.96;;;9.07;75.38
61488;BME280;47351;53.326;-6.298;2023-04-24T01:03:17;100547.77;;;9.01;75.43
61488;BME280;47351;53.326;-6.298;2023-04-24T01:06:07;100549.36;;;8.96;75.61
61488;BME280;47351;53.326;-6.298;2023-04-24T01:09:01;100549.92;;;8.90;75.55
61488;BME280;47351;53.326;-6.298;2023-04-24T01:11:54;100550.26;;;8.83;75.58
61488;BME280;47351;53.326;-6.298;2023-04-24T01:14:47;100553.20;;;8.77;75.66
61488;BME280;47351;53.326;-6.298;2023-04-24T01:17:37;100554.91;;;8.72;75.80
61488;BME280;47351;53.326;-6.298;2023-04-24T01:20:28;100555.50;;;8.68;76.17
61488;BME280;47351;53.326;-6.298;2023-04-24T01:23:25;100559.20;;;8.65;76.25
61488;BME280;47351;53.326;-6.298;2023-04-24T01:26:16;100561.50;;;8.59;76.13
61488;BME280;47351;53.326;-6.298;2023-04-24T01:29:08;100568.63;;;8.55;76.38
61488;BME280;47351;53.326;-6.298;2023-04-24T01:31:59;100574.73;;;8.53;76.68
61488;BME280;47351;53.326;-6.298;2023-04-24T01:34:49;100576.29;;;8.52;76.84
61488;BME280;47351;53.326;-6.298;2023-04-24T01:37:40;100577.02;;;8.51;76.98
61488;BME280;47351;53.326;-6.298;2023-04-24T01:40:30;100576.03;;;8.50;77.04
61488;BME280;47351;53.326;-6.298;2023-04-24T01:43:21;100578.55;;;8.50;77.04
61488;BME280;47351;53.326;-6.298;2023-04-24T01:46:11;100574.73;;;8.50;77.24
61488;BME280;47351;53.326;-6.298;2023-04-24T01:49:22;100573.48;;;8.49;77.40
61488;BME280;47351;53.326;-6.298;2023-04-24T01:52:15;100575.02;;;8.52;77.53
61488;BME280;47351;53.326;-6.298;2023-04-24T01:55:07;100574.59;;;8.54;77.52
61488;BME280;47351;53.326;-6.298;2023-04-24T01:58:02;100578.13;;;8.58;77.64
61488;BME280;47351;53.326;-6.298;2023-04-24T02:00:52;100578.75;;;8.63;77.98
61488;BME280;47351;53.326;-6.298;2023-04-24T02:03:43;100579.42;;;8.69;77.98
61488;BME280;47351;53.326;-6.298;2023-04-24T02:06:36;100580.00;;;8.75;78.03
61488;BME280;47351;53.326;-6.298;2023-04-24T02:09:36;100581.16;;;8.84;78.14
61488;BME280;47351;53.326;-6.298;2023-04-24T02:12:30;100582.91;;;8.93;78.17
61488;BME280;47351;53.326;-6.298;2023-04-24T02:15:30;100587.45;;;9.01;77.97
61488;BME280;47351;53.326;-6.298;2023-04-24T02:18:24;100587.56;;;9.08;77.82
61488;BME280;47351;53.326;-6.298;2023-04-24T02:21:18;100587.86;;;9.14;77.55
61488;BME280;47351;53.326;-6.298;2023-04-24T02:24:08;100583.71;;;9.17;77.28
61488;BME280;47351;53.326;-6.298;2023-04-24T02:26:59;100584.16;;;9.20;77.00
61488;BME280;47351;53.326;-6.298;2023-04-24T02:30:02;100584.98;;;9.21;76.90
61488;BME280;47351;53.326;-6.298;2023-04-24T02:32:53;100585.69;;;9.21;76.85
61488;BME280;47351;53.326;-6.298;2023-04-24T02:35:43;100591.36;;;9.21;76.89
61488;BME280;47351;53.326;-6.298;2023-04-24T02:38:44;100590.83;;;9.21;76.89
61488;BME280;47351;53.326;-6.298;2023-04-24T02:41:34;100596.85;;;9.19;77.03
61488;BME280;47351;53.326;-6.298;2023-04-24T02:44:27;100597.06;;;9.17;77.04
61488;BME280;47351;53.326;-6.298;2023-04-24T02:47:21;100600.48;;;9.15;77.15
61488;BME280;47351;53.326;-6.298;2023-04-24T02:50:14;100598.27;;;9.13;77.11
61488;BME280;47351;53.326;-6.298;2023-04-24T02:53:04;100599.79;;;9.12;77.28
61488;BME280;47351;53.326;-6.298;2023-04-24T02:55:55;100601.56;;;9.10;77.45
61488;BME280;47351;53.326;-6.298;2023-04-24T02:58:47;100598.86;;;9.09;77.48
61488;BME280;47351;53.326;-6.298;2023-04-24T03:01:38;100598.93;;;9.08;77.69
61488;BME280;47351;53.326;-6.298;2023-04-24T03:04:31;100601.70;;;9.07;77.86
61488;BME280;47351;53.326;-6.298;2023-04-24T03:07:26;100602.86;;;9.06;78.15
61488;BME280;47351;53.326;-6.298;2023-04-24T03:10:20;100605.84;;;9.04;78.06
61488;BME280;47351;53.326;-6.298;2023-04-24T03:13:11;100607.77;;;9.03;78.20
61488;BME280;47351;53.326;-6.298;2023-04-24T03:16:01;100608.90;;;9.02;78.33
61488;BME280;47351;53.326;-6.298;2023-04-24T03:18:52;100608.70;;;9.01;78.30
61488;BME280;47351;53.326;-6.298;2023-04-24T03:21:43;100607.77;;;8.98;78.22
61488;BME280;47351;53.326;-6.298;2023-04-24T03:24:34;100603.80;;;8.94;78.37
61488;BME280;47351;53.326;-6.298;2023-04-24T03:27:27;100603.33;;;8.92;78.53
61488;BME280;47351;53.326;-6.298;2023-04-24T03:30:21;100604.23;;;8.90;78.47
61488;BME280;47351;53.326;-6.298;2023-04-24T03:33:18;100604.52;;;8.91;78.83
61488;BME280;47351;53.326;-6.298;2023-04-24T03:36:17;100602.21;;;8.93;79.10
61488;BME280;47351;53.326;-6.298;2023-04-24T03:39:08;100601.61;;;8.97;79.52
61488;BME280;47351;53.326;-6.298;2023-04-24T03:42:19;100599.23;;;9.03;79.76
61488;BME280;47351;53.326;-6.298;2023-04-24T03:45:16;100598.85;;;9.07;79.79
61488;BME280;47351;53.326;-6.298;2023-04-24T03:48:09;100603.02;;;9.08;79.68
61488;BME280;47351;53.326;-6.298;2023-04-24T03:51:02;100600.53;;;9.08;79.74
61488;BME280;47351;53.326;-6.298;2023-04-24T03:53:56;100600.42;;;9.07;79.87
61488;BME280;47351;53.326;-6.298;2023-04-24T03:56:50;100599.98;;;9.06;80.14
61488;BME280;47351;53.326;-6.298;2023-04-24T03:59:41;100598.11;;;9.05;80.47
61488;BME280;47351;53.326;-6.298;2023-04-24T04:02:37;100597.73;;;9.05;80.55
61488;BME280;47351;53.326;-6.298;2023-04-24T04:05:29;100600.98;;;9.03;80.38
61488;BME280;47351;53.326;-6.298;2023-04-24T04:08:19;100601.60;;;9.00;80.50
61488;BME280;47351;53.326;-6.298;2023-04-24T04:11:22;100603.55;;;8.97;80.57
61488;BME280;47351;53.326;-6.298;2023-04-24T04:14:16;100604.30;;;8.91;80.54
61488;BME280;47351;53.326;-6.298;2023-04-24T04:17:08;100605.77;;;8.83;80.53
61488;BME280;47351;53.326;-6.298;2023-04-24T04:20:05;100608.55;;;8.75;80.60
61488;BME280;47351;53.326;-6.298;2023-04-24T04:23:03;100610.97;;;8.68;80.84
61488;BME280;47351;53.326;-6.298;2023-04-24T04:26:16;100610.22;;;8.61;80.83
61488;BME280;47351;53.326;-6.298;2023-04-24T04:29:20;100611.38;;;8.55;80.98
61488;BME280;47351;53.326;-6.298;2023-04-24T04:32:25;100611.42;;;8.50;81.15
61488;BME280;47351;53.326;-6.298;2023-04-24T04:35:18;100615.62;;;8.48;81.31
61488;BME280;47351;53.326;-6.298;2023-04-24T04:38:17;100617.05;;;8.46;81.53
61488;BME280;47351;53.326;-6.298;2023-04-24T04:41:40;100621.35;;;8.46;81.60
61488;BME280;47351;53.326;-6.298;2023-04-24T04:44:34;100624.33;;;8.44;81.46
61488;BME280;47351;53.326;-6.298;2023-04-24T04:47:28;100631.09;;;8.40;81.34
61488;BME280;47351;53.326;-6.298;2023-04-24T04:50:21;100640.21;;;8.38;81.51
61488;BME280;47351;53.326;-6.298;2023-04-24T04:53:31;100646.59;;;8.32;81.73
61488;BME280;47351;53.326;-6.298;2023-04-24T04:56:23;100655.88;;;8.24;81.90
61488;BME280;47351;53.326;-6.298;2023-04-24T04:59:26;100668.27;;;8.04;81.77
61488;BME280;47351;53.326;-6.298;2023-04-24T05:02:22;100680.11;;;7.83;82.28
61488;BME280;47351;53.326;-6.298;2023-04-24T05:05:13;100685.90;;;7.69;82.57
61488;BME280;47351;53.326;-6.298;2023-04-24T05:08:06;100684.73;;;7.54;82.84
61488;BME280;47351;53.326;-6.298;2023-04-24T05:11:11;100682.75;;;7.47;83.63
61488;BME280;47351;53.326;-6.298;2023-04-24T05:14:02;100684.30;;;7.39;84.25
61488;BME280;47351;53.326;-6.298;2023-04-24T05:17:03;100682.80;;;7.38;85.21
61488;BME280;47351;53.326;-6.298;2023-04-24T05:20:14;100681.92;;;7.34;85.50
61488;BME280;47351;53.326;-6.298;2023-04-24T05:23:18;100689.18;;;7.28;85.74
61488;BME280;47351;53.326;-6.298;2023-04-24T05:26:25;100693.96;;;7.26;86.40
61488;BME280;47351;53.326;-6.298;2023-04-24T05:29:34;100701.98;;;7.24;86.58
61488;BME280;47351;53.326;-6.298;2023-04-24T05:32:45;100706.80;;;7.20;86.93
61488;BME280;47351;53.326;-6.298;2023-04-24T05:35:57;100709.98;;;7.18;87.59
61488;BME280;47351;53.326;-6.298;2023-04-24T05:38:50;100718.59;;;7.13;87.51
61488;BME280;47351;53.326;-6.298;2023-04-24T05:41:52;100721.30;;;7.07;87.59
61488;BME280;47351;53.326;-6.298;2023-04-24T05:44:49;100726.27;;;7.03;88.02
61488;BME280;47351;53.326;-6.298;2023-04-24T05:48:03;100733.62;;;6.98;88.12
61488;BME280;47351;53.326;-6.298;2023-04-24T05:50:57;100742.98;;;6.94;88.33
61488;BME280;47351;53.326;-6.298;2023-04-24T05:54:01;100749.34;;;6.90;88.48
61488;BME280;47351;53.326;-6.298;2023-04-24T05:57:02;100754.39;;;6.83;88.36
61488;BME280;47351;53.326;-6.298;2023-04-24T06:00:16;100759.77;;;6.79;88.89
61488;BME280;47351;53.326;-6.298;2023-04-24T06:03:28;100766.61;;;6.75;88.88
61488;BME280;47351;53.326;-6.298;2023-04-24T06:06:32;100772.17;;;6.66;88.44
61488;BME280;47351;53.326;-6.298;2023-04-24T06:09:32;100776.06;;;6.60;88.79
61488;BME280;47351;53.326;-6.298;2023-04-24T06:12:43;100782.33;;;6.55;89.00
61488;BME280;47351;53.326;-6.298;2023-04-24T06:15:55;100779.33;;;6.49;89.26
61488;BME280;47351;53.326;-6.298;2023-04-24T06:19:16;100782.66;;;6.45;89.48
61488;BME280;47351;53.326;-6.298;2023-04-24T06:22:29;100787.59;;;6.41;89.63
61488;BME280;47351;53.326;-6.298;2023-04-24T06:25:40;100795.73;;;6.35;89.77
61488;BME280;47351;53.326;-6.298;2023-04-24T06:28:51;100800.81;;;6.34;90.12
61488;BME280;47351;53.326;-6.298;2023-04-24T06:31:48;100806.88;;;6.33;90.29
61488;BME280;47351;53.326;-6.298;2023-04-24T06:34:42;100816.63;;;6.31;90.15
61488;BME280;47351;53.326;-6.298;2023-04-24T06:37:45;100819.98;;;6.29;90.33
61488;BME280;47351;53.326;-6.298;2023-04-24T06:40:50;100822.93;;;6.28;90.35
61488;BME280;47351;53.326;-6.298;2023-04-24T06:43:59;100826.10;;;6.28;90.50
61488;BME280;47351;53.326;-6.298;2023-04-24T06:46:53;100833.46;;;6.27;90.33
61488;BME280;47351;53.326;-6.298;2023-04-24T06:49:52;100837.20;;;6.22;90.27
61488;BME280;47351;53.326;-6.298;2023-04-24T06:52:42;100838.27;;;6.20;90.27
61488;BME280;47351;53.326;-6.298;2023-04-24T06:56:02;100843.45;;;6.20;90.46
61488;BME280;47351;53.326;-6.298;2023-04-24T07:02:24;100853.69;;;6.20;90.54
61488;BME280;47351;53.326;-6.298;2023-04-24T07:05:42;100862.69;;;6.21;90.71
61488;BME280;47351;53.326;-6.298;2023-04-24T07:08:47;100869.60;;;6.21;90.57
61488;BME280;47351;53.326;-6.298;2023-04-24T07:11:58;100870.48;;;6.21;90.72
61488;BME280;47351;53.326;-6.298;2023-04-24T07:14:51;100873.75;;;6.24;91.03
61488;BME280;47351;53.326;-6.298;2023-04-24T07:17:50;100875.30;;;6.29;91.09
61488;BME280;47351;53.326;-6.298;2023-04-24T07:20:51;100875.91;;;6.30;90.71
61488;BME280;47351;53.326;-6.298;2023-04-24T07:23:59;100878.47;;;6.27;90.51
61488;BME280;47351;53.326;-6.298;2023-04-24T07:26:55;100881.52;;;6.27;90.54
61488;BME280;47351;53.326;-6.298;2023-04-24T07:30:11;100885.31;;;6.26;90.51
61488;BME280;47351;53.326;-6.298;2023-04-24T07:33:05;100887.16;;;6.25;90.54
61488;BME280;47351;53.326;-6.298;2023-04-24T07:36:16;100891.95;;;6.23;90.71
61488;BME280;47351;53.326;-6.298;2023-04-24T07:39:54;100900.05;;;6.21;90.86
61488;BME280;47351;53.326;-6.298;2023-04-24T07:46:51;100909.80;;;6.23;91.25
61488;BME280;47351;53.326;-6.298;2023-04-24T07:49:49;100909.85;;;6.27;91.36
61488;BME280;47351;53.326;-6.298;2023-04-24T07:52:54;100912.48;;;6.34;91.64
61488;BME280;47351;53.326;-6.298;2023-04-24T07:55:47;100917.77;;;6.39;91.51
61488;BME280;47351;53.326;-6.298;2023-04-24T07:58:58;100919.59;;;6.38;91.04
61488;BME280;47351;53.326;-6.298;2023-04-24T08:02:01;100928.61;;;6.38;91.01
61488;BME280;47351;53.326;-6.298;2023-04-24T08:04:55;100929.36;;;6.42;90.86
61488;BME280;47351;53.326;-6.298;2023-04-24T08:07:56;100928.31;;;6.51;90.68
61488;BME280;47351;53.326;-6.298;2023-04-24T08:11:08;100932.99;;;6.65;90.69
61488;BME280;47351;53.326;-6.298;2023-04-24T08:14:02;100934.95;;;6.77;90.59
61488;BME280;47351;53.326;-6.298;2023-04-24T08:16:55;100935.42;;;6.91;90.29
61488;BME280;47351;53.326;-6.298;2023-04-24T08:19:55;100936.72;;;7.01;89.96
61488;BME280;47351;53.326;-6.298;2023-04-24T08:23:10;100932.60;;;7.18;89.94
61488;BME280;47351;53.326;-6.298;2023-04-24T08:26:04;100938.48;;;7.36;89.48
61488;BME280;47351;53.326;-6.298;2023-04-24T08:29:09;100946.78;;;7.51;88.95
61488;BME280;47351;53.326;-6.298;2023-04-24T08:32:11;100946.74;;;7.58;89.04
61488;BME280;47351;53.326;-6.298;2023-04-24T08:35:02;100947.77;;;7.64;89.24
61488;BME280;47351;53.326;-6.298;2023-04-24T08:37:53;100943.94;;;7.90;88.77
61488;BME280;47351;53.326;-6.298;2023-04-24T08:40:46;100946.14;;;8.25;88.30
61488;BME280;47351;53.326;-6.298;2023-04-24T08:43:41;100946.41;;;8.40;86.81
61488;BME280;47351;53.326;-6.298;2023-04-24T08:46:49;100946.32;;;8.49;86.01
61488;BME280;47351;53.326;-6.298;2023-04-24T08:49:40;100943.27;;;8.69;85.20
61488;BME280;47351;53.326;-6.298;2023-04-24T08:56:24;100953.30;;;8.82;84.23
61488;BME280;47351;53.326;-6.298;2023-04-24T08:59:15;100954.62;;;8.91;83.75
61488;BME280;47351;53.326;-6.298;2023-04-24T09:02:06;100955.82;;;9.03;83.79
61488;BME280;47351;53.326;-6.298;2023-04-24T09:05:01;100959.73;;;9.05;83.77
61488;BME280;47351;53.326;-6.298;2023-04-24T09:07:54;100963.20;;;8.98;83.44
61488;BME280;47351;53.326;-6.298;2023-04-24T09:10:54;100970.61;;;8.72;82.93
61488;BME280;47351;53.326;-6.298;2023-04-24T09:17:21;100982.94;;;8.15;83.69
61488;BME280;47351;53.326;-6.298;2023-04-24T09:20:16;100991.83;;;8.17;83.91
61488;BME280;47351;53.326;-6.298;2023-04-24T09:23:07;100991.48;;;8.27;83.79
61488;BME280;47351;53.326;-6.298;2023-04-24T09:26:08;100994.00;;;8.45;83.83
61488;BME280;47351;53.326;-6.298;2023-04-24T09:29:00;100993.19;;;8.76;83.54
61488;BME280;47351;53.326;-6.298;2023-04-24T09:35:29;100998.21;;;9.29;81.78
61488;BME280;47351;53.326;-6.298;2023-04-24T09:42:19;100999.38;;;9.42;80.81
61488;BME280;47351;53.326;-6.298;2023-04-24T09:45:10;101001.50;;;9.34;81.05
61488;BME280;47351;53.326;-6.298;2023-04-24T09:48:47;101007.04;;;9.17;81.24
61488;BME280;47351;53.326;-6.298;2023-04-24T09:51:38;101014.91;;;9.11;81.53
61488;BME280;47351;53.326;-6.298;2023-04-24T09:54:32;101022.23;;;9.17;81.55
61488;BME280;47351;53.326;-6.298;2023-04-24T09:57:25;101020.61;;;9.32;81.95
61488;BME280;47351;53.326;-6.298;2023-04-24T10:00:20;101019.71;;;9.45;81.72
61488;BME280;47351;53.326;-6.298;2023-04-24T10:06:34;101019.48;;;9.67;80.86
61488;BME280;47351;53.326;-6.298;2023-04-24T10:13:41;101027.90;;;10.13;79.88
61488;BME280;47351;53.326;-6.298;2023-04-24T10:17:14;101026.64;;;11.35;77.11
61488;BME280;47351;53.326;-6.298;2023-04-24T10:20:11;101020.86;;;11.81;74.54
61488;BME280;47351;53.326;-6.298;2023-04-24T10:23:02;101020.58;;;12.14;73.78
61488;BME280;47351;53.326;-6.298;2023-04-24T10:25:53;101015.12;;;14.72;69.40
61488;BME280;47351;53.326;-6.298;2023-04-24T10:28:45;101012.27;;;16.34;66.59
61488;BME280;47351;53.326;-6.298;2023-04-24T10:31:35;101015.55;;;16.70;64.42
61488;BME280;47351;53.326;-6.298;2023-04-24T10:41:11;101030.31;;;17.04;60.92
61488;BME280;47351;53.326;-6.298;2023-04-24T10:44:45;101034.34;;;16.75;60.98
61488;BME280;47351;53.326;-6.298;2023-04-24T10:48:08;101037.80;;;16.15;60.24
61488;BME280;47351;53.326;-6.298;2023-04-24T10:58:02;101053.66;;;14.17;62.72
61488;BME280;47351;53.326;-6.298;2023-04-24T11:01:04;101061.92;;;13.80;62.78
61488;BME280;47351;53.326;-6.298;2023-04-24T11:03:57;101068.89;;;13.56;63.10
61488;BME280;47351;53.326;-6.298;2023-04-24T11:07:01;101074.48;;;13.22;63.33
61488;BME280;47351;53.326;-6.298;2023-04-24T11:10:07;101078.58;;;13.01;63.77
61488;BME280;47351;53.326;-6.298;2023-04-24T11:12:59;101081.37;;;12.85;63.42
61488;BME280;47351;53.326;-6.298;2023-04-24T11:19:01;101082.95;;;12.77;63.15
61488;BME280;47351;53.326;-6.298;2023-04-24T11:21:55;101088.27;;;12.81;63.32
61488;BME280;47351;53.326;-6.298;2023-04-24T11:24:50;101092.07;;;12.97;63.04
61488;BME280;47351;53.326;-6.298;2023-04-24T11:34:23;101093.08;;;15.76;57.61
61488;BME280;47351;53.326;-6.298;2023-04-24T11:41:02;101098.66;;;15.12;57.10
61488;BME280;47351;53.326;-6.298;2023-04-24T11:44:09;101100.88;;;14.60;57.84
61488;BME280;47351;53.326;-6.298;2023-04-24T11:50:27;101097.97;;;14.20;57.82
61488;BME280;47351;53.326;-6.298;2023-04-24T11:53:20;101096.15;;;15.59;56.93
61488;BME280;47351;53.326;-6.298;2023-04-24T11:59:42;101101.83;;;17.35;54.31
61488;BME280;47351;53.326;-6.298;2023-04-24T12:02:39;101103.94;;;17.32;52.82
61488;BME280;47351;53.326;-6.298;2023-04-24T12:05:30;101106.51;;;17.11;52.73
61488;BME280;47351;53.326;-6.298;2023-04-24T12:11:30;101110.88;;;16.07;53.28
61488;BME280;47351;53.326;-6.298;2023-04-24T12:14:21;101117.19;;;15.30;53.05
61488;BME280;47351;53.326;-6.298;2023-04-24T12:17:11;101118.69;;;14.53;53.37
61488;BME280;47351;53.326;-6.298;2023-04-24T12:20:02;101130.63;;;13.88;54.32
61488;BME280;47351;53.326;-6.298;2023-04-24T12:22:52;101134.36;;;13.41;55.46
61488;BME280;47351;53.326;-6.298;2023-04-24T12:25:43;101142.45;;;13.15;55.48
61488;BME280;47351;53.326;-6.298;2023-04-24T12:28:36;101147.96;;;12.95;55.81
61488;BME280;47351;53.326;-6.298;2023-04-24T12:31:27;101147.79;;;12.89;56.12
61488;BME280;47351;53.326;-6.298;2023-04-24T12:34:19;101147.06;;;12.95;55.63
61488;BME280;47351;53.326;-6.298;2023-04-24T12:37:11;101149.65;;;13.07;55.32
61488;BME280;47351;53.326;-6.298;2023-04-24T12:40:02;101153.07;;;13.16;55.28
61488;BME280;47351;53.326;-6.298;2023-04-24T12:42:53;101154.05;;;13.26;55.06
61488;BME280;47351;53.326;-6.298;2023-04-24T12:45:45;101164.92;;;13.28;55.11
61488;BME280;47351;53.326;-6.298;2023-04-24T12:48:36;101169.05;;;13.35;55.12
61488;BME280;47351;53.326;-6.298;2023-04-24T12:51:26;101167.94;;;13.60;54.81
61488;BME280;47351;53.326;-6.298;2023-04-24T12:54:16;101164.13;;;14.03;53.92
61488;BME280;47351;53.326;-6.298;2023-04-24T12:57:07;101162.09;;;14.26;53.62
61488;BME280;47351;53.326;-6.298;2023-04-24T12:59:57;101160.23;;;14.31;53.09
61488;BME280;47351;53.326;-6.298;2023-04-24T13:02:48;101163.44;;;14.46;52.86
61488;BME280;47351;53.326;-6.298;2023-04-24T13:05:40;101165.63;;;14.62;52.15
61488;BME280;47351;53.326;-6.298;2023-04-24T13:08:30;101166.84;;;14.64;51.69
61488;BME280;47351;53.326;-6.298;2023-04-24T13:11:23;101171.58;;;14.47;51.90
61488;BME280;47351;53.326;-6.298;2023-04-24T13:14:18;101178.56;;;14.09;51.83
61488;BME280;47351;53.326;-6.298;2023-04-24T13:17:08;101183.38;;;13.73;52.00
61488;BME280;47351;53.326;-6.298;2023-04-24T13:20:00;101181.74;;;13.52;52.39
61488;BME280;47351;53.326;-6.298;2023-04-24T13:22:53;101180.05;;;13.48;52.76
61488;BME280;47351;53.326;-6.298;2023-04-24T13:25:43;101182.30;;;13.42;52.74
61488;BME280;47351;53.326;-6.298;2023-04-24T13:28:34;101180.86;;;13.25;52.68
61488;BME280;47351;53.326;-6.298;2023-04-24T13:31:24;101178.56;;;12.96;52.42
61488;BME280;47351;53.326;-6.298;2023-04-24T13:34:15;101182.51;;;12.74;53.23
61488;BME280;47351;53.326;-6.298;2023-04-24T13:37:05;101189.47;;;12.62;53.49
61488;BME280;47351;53.326;-6.298;2023-04-24T13:39:56;101191.61;;;12.50;53.85
61488;BME280;47351;53.326;-6.298;2023-04-24T13:42:49;101196.91;;;12.37;53.87
61488;BME280;47351;53.326;-6.298;2023-04-24T13:45:40;101198.73;;;12.26;53.64
61488;BME280;47351;53.326;-6.298;2023-04-24T13:48:30;101200.09;;;12.21;54.16
61488;BME280;47351;53.326;-6.298;2023-04-24T13:51:20;101199.08;;;12.21;54.10
61488;BME280;47351;53.326;-6.298;2023-04-24T13:54:10;101204.30;;;12.24;54.23
61488;BME280;47351;53.326;-6.298;2023-04-24T13:57:01;101209.43;;;12.28;54.10
61488;BME280;47351;53.326;-6.298;2023-04-24T13:59:51;101205.95;;;12.34;54.55
61488;BME280;47351;53.326;-6.298;2023-04-24T14:02:42;101207.33;;;12.40;54.49
61488;BME280;47351;53.326;-6.298;2023-04-24T14:05:32;101206.36;;;12.40;54.22
61488;BME280;47351;53.326;-6.298;2023-04-24T14:08:26;101209.91;;;12.39;53.80
61488;BME280;47351;53.326;-6.298;2023-04-24T14:11:16;101213.50;;;12.35;53.73
61488;BME280;47351;53.326;-6.298;2023-04-24T14:14:07;101212.52;;;12.33;53.46
61488;BME280;47351;53.326;-6.298;2023-04-24T14:16:58;101214.13;;;12.33;53.36
61488;BME280;47351;53.326;-6.298;2023-04-24T14:19:48;101217.61;;;12.32;53.19
61488;BME280;47351;53.326;-6.298;2023-04-24T14:22:39;101217.08;;;12.32;53.49
61488;BME280;47351;53.326;-6.298;2023-04-24T14:25:29;101215.03;;;12.27;52.87
61488;BME280;47351;53.326;-6.298;2023-04-24T14:28:20;101217.79;;;12.18;52.59
61488;BME280;47351;53.326;-6.298;2023-04-24T14:31:11;101217.48;;;12.13;52.74
61488;BME280;47351;53.326;-6.298;2023-04-24T14:34:03;101217.06;;;12.16;53.16
61488;BME280;47351;53.326;-6.298;2023-04-24T14:36:54;101223.45;;;12.19;52.77
61488;BME280;47351;53.326;-6.298;2023-04-24T14:39:44;101218.56;;;12.12;52.64
61488;BME280;47351;53.326;-6.298;2023-04-24T14:42:48;101217.62;;;12.02;52.85
61488;BME280;47351;53.326;-6.298;2023-04-24T14:45:48;101214.36;;;11.90;52.92
61488;BME280;47351;53.326;-6.298;2023-04-24T14:48:38;101217.42;;;11.79;52.64
61488;BME280;47351;53.326;-6.298;2023-04-24T14:51:29;101220.56;;;11.71;52.36
61488;BME280;47351;53.326;-6.298;2023-04-24T14:54:20;101220.16;;;11.68;52.74
61488;BME280;47351;53.326;-6.298;2023-04-24T14:57:21;101218.44;;;11.65;53.04
61488;BME280;47351;53.326;-6.298;2023-04-24T15:00:13;101222.52;;;11.68;53.17
61488;BME280;47351;53.326;-6.298;2023-04-24T15:03:06;101225.11;;;11.70;53.19
61488;BME280;47351;53.326;-6.298;2023-04-24T15:05:58;101227.06;;;11.81;53.23
61488;BME280;47351;53.326;-6.298;2023-04-24T15:08:51;101226.40;;;11.93;53.05
61488;BME280;47351;53.326;-6.298;2023-04-24T15:11:42;101225.71;;;12.07;53.11
61488;BME280;47351;53.326;-6.298;2023-04-24T15:14:32;101224.73;;;12.15;52.88
61488;BME280;47351;53.326;-6.298;2023-04-24T15:17:23;101234.35;;;12.21;52.68
61488;BME280;47351;53.326;-6.298;2023-04-24T15:20:16;101232.39;;;12.19;52.24
61488;BME280;47351;53.326;-6.298;2023-04-24T15:23:07;101235.98;;;12.17;52.28
61488;BME280;47351;53.326;-6.298;2023-04-24T15:25:58;101239.23;;;12.24;52.28
61488;BME280;47351;53.326;-6.298;2023-04-24T15:28:49;101241.94;;;12.39;52.29
61488;BME280;47351;53.326;-6.298;2023-04-24T15:31:40;101242.92;;;12.59;52.34
61488;BME280;47351;53.326;-6.298;2023-04-24T15:34:31;101242.09;;;12.74;51.74
61488;BME280;47351;53.326;-6.298;2023-04-24T15:37:22;101240.11;;;12.76;51.75
61488;BME280;47351;53.326;-6.298;2023-04-24T15:40:12;101245.13;;;12.78;51.53
61488;BME280;47351;53.326;-6.298;2023-04-24T15:43:04;101244.61;;;12.81;51.25
61488;BME280;47351;53.326;-6.298;2023-04-24T15:45:54;101247.39;;;12.85;51.52
61488;BME280;47351;53.326;-6.298;2023-04-24T15:48:45;101245.73;;;12.89;51.32
61488;BME280;47351;53.326;-6.298;2023-04-24T15:51:36;101246.29;;;12.94;50.27
61488;BME280;47351;53.326;-6.298;2023-04-24T15:54:27;101250.27;;;13.04;50.21
61488;BME280;47351;53.326;-6.298;2023-04-24T15:57:17;101247.46;;;13.21;49.94
61488;BME280;47351;53.326;-6.298;2023-04-24T16:00:08;101247.86;;;13.35;49.79
61488;BME280;47351;53.326;-6.298;2023-04-24T16:02:59;101250.42;;;13.36;49.47
61488;BME280;47351;53.326;-6.298;2023-04-24T16:05:50;101257.43;;;13.31;49.42
61488;BME280;47351;53.326;-6.298;2023-04-24T16:08:40;101259.08;;;13.19;49.13
61488;BME280;47351;53.326;-6.298;2023-04-24T16:11:30;101258.92;;;13.05;48.98
61488;BME280;47351;53.326;-6.298;2023-04-24T16:14:21;101263.77;;;12.96;48.85
61488;BME280;47351;53.326;-6.298;2023-04-24T16:17:11;101267.05;;;12.92;48.65
61488;BME280;47351;53.326;-6.298;2023-04-24T16:20:02;101269.15;;;12.74;48.55
61488;BME280;47351;53.326;-6.298;2023-04-24T16:22:52;101275.59;;;12.57;48.94